Aviation Digital Data Service (ADDS)

Output produced by METARs form (0817 UTC 20 March 2019)
found at http://www.aviationweather.gov/metar/data/
 
Forecast for: DIBK (BOUAKE (CIV/MIL), CI)
Text: TAF DIBK 200500Z 2006/2106 25005KT 9999 FEW013
Forecast period: 0600 UTC 20 March 2019 to 0600 UTC 21 March 2019
Forecast type: FROM: standard forecast or significant change
Winds: from the WSW (250 degrees) at 6 MPH (5 knots; 2.6 m/s)
Visibility: 6 or more miles 10+ km)
Ceiling: at least 12,000 feet AGL
Clouds: few clouds at 1300 feet AGL
Weather: no significant weather forecast for this period
Text: PROB30
Forecast period: 1400 to 2000 UTC 20 March 2019
Forecast type: TEMPORARY: The following changes expected for less than half the time period
Visibility: missing
Ceiling: 1300 feet AGL
Clouds: broken clouds at 1300 feet AGL
few clouds at 3000 feet AGL
Weather: no significant weather forecast for this period